Time;durP1;ratioP1;P1;durP2;ratioP2;P2;SDS_P1;SDS_P2;PMS_P1;PMS_P2;Temp;Humidity;BMP_temperature;BMP_pressure;BME280_temperature;BME280_humidity;BME280_pressure;Samples;Min_cycle;Max_cycle;Signal;HPM_P1;HPM_P2
2021/07/28 00:01:53;;;;;;;1999.90;999.90;;;;;;;20.64;95.55;95998.00;5049230;28;20291;-61
2021/07/28 00:04:22;;;;;;;1999.90;999.90;;;;;;;20.68;95.98;95995.41;5049329;28;20224;-62
2021/07/28 00:06:49;;;;;;;1999.90;999.90;;;;;;;20.77;95.26;96001.31;5035909;28;20209;-62
2021/07/28 00:09:16;;;;;;;1999.90;999.90;;;;;;;20.68;95.55;95995.41;5039356;28;20665;-61
2021/07/28 00:11:43;;;;;;;1999.90;999.90;;;;;;;20.54;95.86;95988.72;5038942;28;20201;-61
2021/07/28 00:14:10;;;;;;;1999.90;999.90;;;;;;;20.43;96.70;95995.66;5049384;28;20205;-61
2021/07/28 00:16:38;;;;;;;1999.90;999.90;;;;;;;20.32;98.23;95991.25;5048957;28;20240;-62
2021/07/28 00:19:09;;;;;;;1999.90;999.90;;;;;;;20.31;98.79;95993.13;5033509;28;20198;-61
2021/07/28 00:24:22;;;;;;;1999.90;999.90;;;;;;;20.11;98.66;95999.41;5046187;28;20313;-61
2021/07/28 00:26:49;;;;;;;1999.90;999.90;;;;;;;20.08;99.41;95994.81;5048706;28;20197;-62
2021/07/28 00:29:17;;;;;;;1999.90;999.90;;;;;;;20.11;100.00;95994.13;5048696;28;20208;-62
2021/07/28 00:31:44;;;;;;;1999.90;999.90;;;;;;;20.17;100.00;95993.53;5048712;28;20201;-61
2021/07/28 00:34:11;;;;;;;1999.90;999.90;;;;;;;20.25;98.80;95983.13;5049289;28;20198;-61
2021/07/28 00:36:39;;;;;;;1999.90;999.90;;;;;;;20.06;99.91;95987.25;5048981;28;20197;-61
2021/07/28 00:39:07;;;;;;;1999.90;999.90;;;;;;;20.01;100.00;95989.38;5048862;28;20201;-61
2021/07/28 00:41:34;;;;;;;1999.90;999.90;;;;;;;19.95;100.00;95988.09;5048141;28;20688;-61
2021/07/28 00:44:01;;;;;;;1999.90;999.90;;;;;;;20.03;100.00;95985.28;5048690;28;20244;-61
2021/07/28 00:46:28;;;;;;;1999.90;999.90;;;;;;;20.07;100.00;95988.00;5048557;28;20201;-61
2021/07/28 00:48:55;;;;;;;1999.90;999.90;;;;;;;20.13;99.39;95989.25;5048459;28;20284;-61
2021/07/28 00:51:22;;;;;;;1999.90;999.90;;;;;;;20.09;99.34;95988.41;5048418;28;20626;-62
2021/07/28 00:53:52;;;;;;;1999.90;999.90;;;;;;;20.05;98.29;95984.94;5048654;28;20205;-62
2021/07/28 00:56:19;;;;;;;1999.90;999.90;;;;;;;20.02;98.42;95985.63;5048299;28;20201;-61
2021/07/28 00:58:47;;;;;;;1999.90;999.90;;;;;;;19.94;98.64;95991.81;5048301;28;20201;-61
2021/07/28 01:01:16;;;;;;;1999.90;999.90;;;;;;;19.84;98.50;95984.41;5048303;28;20205;-60
2021/07/28 01:03:43;;;;;;;1999.90;999.90;;;;;;;19.69;98.70;95981.44;5048193;28;20282;-61
2021/07/28 01:06:11;;;;;;;1999.90;999.90;;;;;;;19.65;99.00;95983.22;5048576;28;20283;-61
2021/07/28 01:08:38;;;;;;;1999.90;999.90;;;;;;;19.60;99.48;95975.56;5047163;28;20202;-61
2021/07/28 01:11:07;;;;;;;1999.90;999.90;;;;;;;19.57;99.83;95976.25;5048511;28;20201;-62
2021/07/28 01:13:36;;;;;;;1999.90;999.90;;;;;;;19.51;100.00;95979.47;5048486;28;20626;-61
2021/07/28 01:16:06;;;;;;;1999.90;999.90;;;;;;;19.53;100.00;95980.66;5048098;28;20964;-61
2021/07/28 01:18:34;;;;;;;1999.90;999.90;;;;;;;19.39;100.00;95979.50;5048017;28;20704;-61
2021/07/28 01:21:01;;;;;;;1999.90;999.90;;;;;;;19.40;100.00;95970.47;5047782;28;20751;-62
2021/07/28 01:23:31;;;;;;;1999.90;999.90;;;;;;;19.35;100.00;95982.03;5033789;27;20236;-61
2021/07/28 01:26:02;;;;;;;1999.90;999.90;;;;;;;19.32;100.00;95974.81;5048201;28;20205;-61
2021/07/28 01:28:31;;;;;;;1999.90;999.90;;;;;;;19.30;100.00;95977.78;5047915;28;20193;-61
2021/07/28 01:31:00;;;;;;;1999.90;999.90;;;;;;;19.20;100.00;95975.63;5040129;28;20581;-62
2021/07/28 01:33:28;;;;;;;1999.90;999.90;;;;;;;19.23;100.00;95979.44;5027846;28;20209;-62
2021/07/28 01:35:56;;;;;;;1999.90;999.90;;;;;;;19.23;100.00;95971.53;5027653;28;20583;-62
2021/07/28 01:38:25;;;;;;;1999.90;999.90;;;;;;;19.07;100.00;95976.03;5041808;28;20582;-61
2021/07/28 01:40:56;;;;;;;1999.90;999.90;;;;;;;19.07;99.81;95976.03;5047578;27;20216;-62
2021/07/28 01:43:23;;;;;;;1999.90;999.90;;;;;;;19.01;100.00;95974.72;5047575;28;20331;-61
2021/07/28 01:45:51;;;;;;;1999.90;999.90;;;;;;;19.04;100.00;95979.31;5047994;28;20216;-61
2021/07/28 01:48:18;;;;;;;1999.90;999.90;;;;;;;19.06;100.00;95971.84;5048030;28;20197;-61
2021/07/28 01:50:46;;;;;;;1999.90;999.90;;;;;;;19.07;100.00;95974.16;5047802;28;20230;-62
2021/07/28 01:53:14;;;;;;;1999.90;999.90;;;;;;;19.12;100.00;95975.78;5047831;28;20246;-61
2021/07/28 01:55:41;;;;;;;1999.90;999.90;;;;;;;19.03;100.00;95969.91;5046219;28;20316;-63
2021/07/28 01:58:11;;;;;;;1999.90;999.90;;;;;;;19.05;100.00;95975.56;5035883;28;20209;-61
2021/07/28 02:00:38;;;;;;;1999.90;999.90;;;;;;;19.01;100.00;95964.19;5046095;27;20202;-62
2021/07/28 02:03:05;;;;;;;1999.90;999.90;;;;;;;19.03;100.00;95969.91;5044845;27;20258;-61
2021/07/28 02:05:33;;;;;;;1999.90;999.90;;;;;;;19.02;100.00;95973.63;5045140;27;20700;-62
2021/07/28 02:08:03;;;;;;;1999.90;999.90;;;;;;;18.96;100.00;95967.06;5046998;28;20211;-62
2021/07/28 02:10:31;;;;;;;1999.90;999.90;;;;;;;18.96;100.00;95962.56;5046240;28;20190;-62
2021/07/28 02:12:59;;;;;;;1999.90;999.90;;;;;;;19.06;100.00;95961.31;5027216;28;20258;-61
2021/07/28 02:15:28;;;;;;;1999.90;999.90;;;;;;;19.06;100.00;95971.84;5027310;28;20194;-63
2021/07/28 02:17:56;;;;;;;1999.90;999.90;;;;;;;19.01;100.00;95964.94;5035053;27;20208;-61
2021/07/28 02:20:23;;;;;;;1999.90;999.90;;;;;;;18.96;100.00;95972.31;5043335;28;20203;-59
2021/07/28 02:22:51;;;;;;;1999.90;999.90;;;;;;;18.87;100.00;95967.19;5046900;28;20205;-61
2021/07/28 02:25:18;;;;;;;1999.90;999.90;;;;;;;18.77;100.00;95960.53;5046805;27;20231;-61
2021/07/28 02:27:46;;;;;;;1999.90;999.90;;;;;;;18.58;100.00;95962.97;5046751;27;20213;-60
2021/07/28 02:30:16;;;;;;;1999.90;999.90;;;;;;;18.53;100.00;95971.06;5046825;28;20583;-62
2021/07/28 02:32:47;;;;;;;1999.90;999.90;;;;;;;18.48;100.00;95979.97;5046588;28;20295;-62
2021/07/28 02:35:15;;;;;;;1999.90;999.90;;;;;;;18.52;100.00;95974.06;5047053;28;20185;-61
2021/07/28 02:37:43;;;;;;;1999.90;999.90;;;;;;;18.52;100.00;95974.06;5042817;28;20201;-63
2021/07/28 02:40:11;;;;;;;1999.90;999.90;;;;;;;18.52;100.00;95974.06;5046735;28;20669;-62
2021/07/28 02:42:38;;;;;;;1999.90;999.90;;;;;;;18.48;100.00;95981.81;5046633;28;20613;-62
2021/07/28 02:45:08;;;;;;;1999.90;999.90;;;;;;;18.57;100.00;95979.13;5042842;27;20236;-60
2021/07/28 02:47:35;;;;;;;1999.90;999.90;;;;;;;18.51;100.00;95983.81;5046499;28;20673;-61
2021/07/28 02:50:04;;;;;;;1999.90;999.90;;;;;;;18.38;100.00;95984.94;5046415;28;20197;-59
2021/07/28 02:52:33;;;;;;;1999.90;999.90;;;;;;;18.41;100.00;95994.78;5046588;28;20205;-61
2021/07/28 02:55:05;;;;;;;1999.90;999.90;;;;;;;18.34;100.00;95984.03;5029753;28;20202;-62
2021/07/28 02:57:32;;;;;;;1999.90;999.90;;;;;;;18.36;100.00;95980.00;5044530;28;20659;-62
2021/07/28 03:00:00;;;;;;;1999.90;999.90;;;;;;;18.37;100.00;95983.38;5049582;28;20201;-61
2021/07/28 03:02:29;;;;;;;1999.90;999.90;;;;;;;18.32;100.00;95980.97;5045813;28;20811;-63
2021/07/28 03:04:56;;;;;;;1999.90;999.90;;;;;;;18.28;100.00;95986.13;5029343;28;20234;-63
2021/07/28 03:07:24;;;;;;;1999.90;999.90;;;;;;;18.24;100.00;95985.25;5026418;28;20697;-62
2021/07/28 03:09:52;;;;;;;1999.90;999.90;;;;;;;18.31;100.00;95989.97;5026755;28;20293;-63
2021/07/28 03:12:19;;;;;;;1999.90;999.90;;;;;;;18.35;100.00;95986.34;5040835;28;20197;-62
2021/07/28 03:14:46;;;;;;;1999.90;999.90;;;;;;;18.42;100.00;95985.78;5046095;28;20212;-61
2021/07/28 03:17:13;;;;;;;1999.90;999.90;;;;;;;18.36;100.00;95982.63;5046501;28;20215;-62
2021/07/28 03:19:40;;;;;;;1999.90;999.90;;;;;;;18.31;100.00;95989.97;5045161;28;20228;-61
2021/07/28 03:22:07;;;;;;;1999.90;999.90;;;;;;;18.31;100.00;95987.34;5046144;28;20237;-61
2021/07/28 03:24:35;;;;;;;1999.90;999.90;;;;;;;18.32;100.00;95984.38;5042784;28;20456;-61
2021/07/28 03:27:02;;;;;;;1999.90;999.90;;;;;;;18.32;100.00;95991.50;5026304;28;20514;-61
2021/07/28 03:29:30;;;;;;;1999.90;999.90;;;;;;;18.28;100.00;95988.00;5026446;28;20206;-65
2021/07/28 03:31:58;;;;;;;1999.90;999.90;;;;;;;18.34;100.00;95987.44;5024039;28;20453;-63
2021/07/28 03:34:25;;;;;;;1999.90;999.90;;;;;;;18.50;100.00;95992.78;5026367;28;20198;-61
2021/07/28 03:36:53;;;;;;;1999.90;999.90;;;;;;;18.60;100.00;95987.09;5026044;28;20198;-60
2021/07/28 03:39:20;;;;;;;1999.90;999.90;;;;;;;18.63;100.00;95989.06;5026179;28;20209;-60
2021/07/28 03:41:49;;;;;;;1999.90;999.90;;;;;;;18.69;100.00;95990.38;5026580;27;20700;-60
2021/07/28 03:44:16;;;;;;;1999.90;999.90;;;;;;;18.66;100.00;95985.78;5047232;28;20599;-61
2021/07/28 03:46:43;;;;;;;1999.90;999.90;;;;;;;18.67;100.00;95992.59;5046684;27;20197;-62
2021/07/28 03:49:10;;;;;;;1999.90;999.90;;;;;;;18.64;100.00;95985.34;5039495;28;20266;-62
2021/07/28 03:51:37;;;;;;;1999.90;999.90;;;;;;;18.76;100.00;96003.75;5031087;27;20207;-62
2021/07/28 03:54:04;;;;;;;1999.90;999.90;;;;;;;18.72;100.00;96002.91;5032718;28;20766;-60
2021/07/28 03:56:31;;;;;;;1999.90;999.90;;;;;;;18.67;100.00;96003.13;5037346;28;20213;-60
2021/07/28 03:59:00;;;;;;;1999.90;999.90;;;;;;;18.74;100.00;96002.53;5042635;28;20212;-63
2021/07/28 04:01:27;;;;;;;1999.90;999.90;;;;;;;18.83;100.00;96001.31;5044116;28;20204;-61
2021/07/28 04:03:54;;;;;;;1999.90;999.90;;;;;;;18.92;100.00;95999.34;5043010;28;20212;-60
2021/07/28 04:06:21;;;;;;;1999.90;999.90;;;;;;;18.92;100.00;96003.84;5043202;28;20208;-66
2021/07/28 04:08:48;;;;;;;1999.90;999.90;;;;;;;18.93;100.00;95997.44;5043662;28;20209;-60
2021/07/28 04:11:16;;;;;;;1999.90;999.90;;;;;;;19.11;100.00;96000.59;5043698;28;20201;-59
2021/07/28 04:13:43;;;;;;;1999.90;999.90;;;;;;;19.16;100.00;96001.13;5045284;28;20201;-61
2021/07/28 04:16:12;;;;;;;1999.90;999.90;;;;;;;19.29;100.00;96001.81;5045716;28;20247;-60
2021/07/28 04:18:39;;;;;;;1999.90;999.90;;;;;;;19.24;100.00;96010.75;5045256;28;20198;-60
2021/07/28 04:21:06;;;;;;;1999.90;999.90;;;;;;;19.17;100.00;96005.28;5045361;28;20233;-61
2021/07/28 04:23:33;;;;;;;1999.90;999.90;;;;;;;19.16;100.00;96010.91;5045524;28;20198;-61
2021/07/28 04:26:00;;;;;;;1999.90;999.90;;;;;;;19.24;100.00;96002.06;5045637;28;20221;-60
2021/07/28 04:28:28;;;;;;;1999.90;999.90;;;;;;;19.38;100.00;96005.06;5045271;28;20198;-60
2021/07/28 04:30:55;;;;;;;1999.90;999.90;;;;;;;19.43;100.00;95999.56;5045283;28;20216;-59
2021/07/28 04:33:23;;;;;;;1999.90;999.90;;;;;;;19.57;100.00;95999.22;5045283;28;20201;-59
2021/07/28 04:35:51;;;;;;;1999.90;999.90;;;;;;;19.80;100.00;95996.75;5045175;28;20197;-60
2021/07/28 04:38:18;;;;;;;1999.90;999.90;;;;;;;20.18;100.00;95996.94;5045221;28;20202;-63
2021/07/28 04:40:45;;;;;;;1999.90;999.90;;;;;;;20.48;100.00;96003.31;5045228;28;20209;-65
2021/07/28 04:43:12;;;;;;;1999.90;999.90;;;;;;;20.72;100.00;96002.34;5046029;28;20197;-62
2021/07/28 04:45:40;;;;;;;1999.90;999.90;;;;;;;21.01;99.00;96003.69;5048812;28;20228;-63
2021/07/28 04:48:07;;;;;;;1999.90;999.90;;;;;;;20.99;98.13;96008.53;5048694;28;20274;-62
2021/07/28 04:50:36;;;;;;;1999.90;999.90;;;;;;;21.24;97.57;96009.06;5048365;28;20192;-63
2021/07/28 04:53:03;;;;;;;1999.90;999.90;;;;;;;21.37;97.75;96002.53;5048666;28;20202;-63
2021/07/28 04:55:30;;;;;;;1999.90;999.90;;;;;;;21.58;97.47;95996.84;5048543;28;20209;-63
2021/07/28 04:57:57;;;;;;;1999.90;999.90;;;;;;;21.68;96.70;96004.97;5048614;28;20212;-63
2021/07/28 05:00:25;;;;;;;1999.90;999.90;;;;;;;21.82;94.37;96009.72;5048274;28;20215;-63
2021/07/28 05:02:52;;;;;;;1999.90;999.90;;;;;;;21.79;92.97;96005.16;5048564;28;20205;-63
2021/07/28 05:05:19;;;;;;;1999.90;999.90;;;;;;;22.07;92.88;95995.06;5048269;28;20229;-61
2021/07/28 05:07:47;;;;;;;1999.90;999.90;;;;;;;22.11;91.53;95992.47;5048000;28;20204;-62
2021/07/28 05:10:14;;;;;;;1999.90;999.90;;;;;;;22.18;91.96;95996.00;5048606;28;20280;-62
2021/07/28 05:12:41;;;;;;;1999.90;999.90;;;;;;;22.15;90.73;95993.28;5048383;28;20201;-62
2021/07/28 05:15:10;;;;;;;1999.90;999.90;;;;;;;22.49;90.64;95994.94;5048015;28;20569;-62
2021/07/28 05:17:37;;;;;;;1999.90;999.90;;;;;;;22.84;88.06;95994.69;5048002;28;20201;-62
2021/07/28 05:20:05;;;;;;;1999.90;999.90;;;;;;;23.00;87.83;95999.81;5048327;28;20203;-62
2021/07/28 05:22:33;;;;;;;1999.90;999.90;;;;;;;23.20;88.00;95998.53;5047850;28;20231;-62
2021/07/28 05:25:01;;;;;;;1999.90;999.90;;;;;;;23.36;87.31;95995.69;5048113;28;20266;-63
2021/07/28 05:27:29;;;;;;;1999.90;999.90;;;;;;;23.36;87.12;96001.00;5047765;28;20194;-63
2021/07/28 05:29:56;;;;;;;1999.90;999.90;;;;;;;23.33;87.84;95996.41;5048025;28;20300;-64
2021/07/28 05:32:24;;;;;;;1999.90;999.90;;;;;;;23.36;88.08;95999.06;5048110;28;20280;-60
2021/07/28 05:34:51;;;;;;;1999.90;999.90;;;;;;;23.51;86.40;95994.75;5048171;28;20203;-61
2021/07/28 05:37:19;;;;;;;1999.90;999.90;;;;;;;23.72;85.86;95989.63;5047866;28;20201;-61
2021/07/28 05:39:46;;;;;;;1999.90;999.90;;;;;;;23.71;86.26;95998.69;5047789;28;20250;-62
2021/07/28 05:42:15;;;;;;;1999.90;999.90;;;;;;;23.58;87.14;95989.50;5047664;28;20297;-64
2021/07/28 05:44:42;;;;;;;1999.90;999.90;;;;;;;23.94;86.28;95999.31;5047812;28;20221;-62
2021/07/28 05:47:09;;;;;;;1999.90;999.90;;;;;;;24.26;84.71;95996.91;5048168;28;20193;-61
2021/07/28 05:49:36;;;;;;;1999.90;999.90;;;;;;;24.71;80.51;95995.69;5047617;28;20207;-66
2021/07/28 05:52:04;;;;;;;1999.90;999.90;;;;;;;25.05;76.58;95998.94;5050039;28;20202;-65
2021/07/28 05:54:31;;;;;;;1999.90;999.90;;;;;;;25.12;75.85;95995.53;5046846;28;20202;-64
2021/07/28 05:56:58;;;;;;;1999.90;999.90;;;;;;;24.94;75.74;95992.81;5047595;28;20556;-64
2021/07/28 05:59:27;;;;;;;1999.90;999.90;;;;;;;25.38;73.64;95995.25;5047409;28;20197;-62
2021/07/28 06:01:54;;;;;;;1999.90;999.90;;;;;;;25.58;73.66;95985.06;5047643;28;20209;-64
2021/07/28 06:04:21;;;;;;;1999.90;999.90;;;;;;;25.76;73.72;95987.72;5047443;27;20206;-62
2021/07/28 06:06:48;;;;;;;1999.90;999.90;;;;;;;25.93;72.39;95997.66;5047174;28;20723;-62
2021/07/28 06:09:15;;;;;;;1999.90;999.90;;;;;;;26.17;69.80;96002.22;5047218;27;20197;-62
2021/07/28 06:11:43;;;;;;;1999.90;999.90;;;;;;;26.36;67.51;95999.19;5047581;28;20203;-63
2021/07/28 06:14:10;;;;;;;1999.90;999.90;;;;;;;26.32;68.16;95995.78;5047097;28;20205;-62
2021/07/28 06:16:39;;;;;;;1999.90;999.90;;;;;;;26.46;70.04;95990.41;5047155;28;20250;-62
2021/07/28 06:19:06;;;;;;;1999.90;999.90;;;;;;;26.63;67.84;95982.78;5047378;28;20201;-62
2021/07/28 06:21:34;;;;;;;1999.90;999.90;;;;;;;26.91;67.14;95990.72;5046965;28;20279;-62
2021/07/28 06:24:02;;;;;;;1999.90;999.90;;;;;;;27.08;63.24;95989.91;5046945;28;20208;-60
2021/07/28 06:26:29;;;;;;;1999.90;999.90;;;;;;;27.23;61.68;95987.94;5047085;28;20225;-61
2021/07/28 06:28:56;;;;;;;1999.90;999.90;;;;;;;26.83;63.66;95999.88;5046908;28;20223;-62
2021/07/28 06:31:23;;;;;;;1999.90;999.90;;;;;;;27.14;64.58;95995.59;5047219;28;20193;-60
2021/07/28 06:33:52;;;;;;;1999.90;999.90;;;;;;;27.23;65.92;95994.03;5046735;28;20669;-60
2021/07/28 06:36:19;;;;;;;1999.90;999.90;;;;;;;27.32;65.38;95988.28;5047182;28;20205;-60
2021/07/28 06:38:46;;;;;;;1999.90;999.90;;;;;;;27.48;63.65;95985.13;5046818;27;20593;-59
2021/07/28 06:41:13;;;;;;;1999.90;999.90;;;;;;;27.68;62.48;95997.63;5046790;27;20197;-60
2021/07/28 06:43:40;;;;;;;1999.90;999.90;;;;;;;27.87;62.24;95998.28;5046627;28;20209;-60
2021/07/28 06:46:07;;;;;;;1999.90;999.90;;;;;;;28.14;60.11;95997.34;5047027;28;20225;-60
2021/07/28 06:48:34;;;;;;;1999.90;999.90;;;;;;;28.04;62.02;95994.72;5046684;28;20197;-60
2021/07/28 06:51:03;;;;;;;1999.90;999.90;;;;;;;28.11;61.80;95987.41;5046638;28;20199;-59
2021/07/28 06:53:30;;;;;;;1999.90;999.90;;;;;;;27.95;62.03;95987.13;5046632;28;20201;-60
2021/07/28 06:55:57;;;;;;;1999.90;999.90;;;;;;;27.76;61.16;95990.31;5046803;28;20201;-60
2021/07/28 06:58:24;;;;;;;1999.90;999.90;;;;;;;27.86;62.65;95978.81;5046681;27;20205;-59
2021/07/28 07:00:53;;;;;;;1999.90;999.90;;;;;;;28.20;58.52;95987.72;5046572;28;20204;-59
2021/07/28 07:03:20;;;;;;;1999.90;999.90;;;;;;;28.12;59.01;95978.25;5046406;28;20198;-59
2021/07/28 07:05:48;;;;;;;1999.90;999.90;;;;;;;27.94;60.14;95974.94;5046390;28;20228;-59
2021/07/28 07:08:17;;;;;;;1999.90;999.90;;;;;;;28.12;60.65;95975.59;5045401;28;20688;-59
2021/07/28 07:10:44;;;;;;;1999.90;999.90;;;;;;;28.09;62.19;95971.00;5046395;28;20193;-59
2021/07/28 07:13:11;;;;;;;1999.90;999.90;;;;;;;28.29;60.86;95978.50;5046153;28;20579;-60
2021/07/28 07:15:38;;;;;;;1999.90;999.90;;;;;;;28.31;57.60;95976.19;5046224;28;20201;-60
2021/07/28 07:18:05;;;;;;;1999.90;999.90;;;;;;;28.79;55.91;95978.81;5046049;28;20328;-59
2021/07/28 07:20:32;;;;;;;1999.90;999.90;;;;;;;28.78;55.63;95977.28;5046363;28;20196;-59
2021/07/28 07:22:59;;;;;;;1999.90;999.90;;;;;;;28.68;56.80;95973.53;5046247;28;20178;-59
2021/07/28 07:25:28;;;;;;;1999.90;999.90;;;;;;;28.67;56.81;95972.00;5046071;28;20220;-59
2021/07/28 07:27:55;;;;;;;1999.90;999.90;;;;;;;29.04;55.66;95973.91;5046420;28;20596;-59
2021/07/28 07:30:23;;;;;;;1999.90;999.90;;;;;;;29.15;55.73;95973.75;5046351;27;20201;-59
2021/07/28 07:33:37;;;;;;;1999.90;999.90;;;;;;;29.41;52.58;95976.50;5046275;27;20201;-59
2021/07/28 07:35:37;;;;;;;1999.90;999.90;;;;;;;29.50;53.44;95978.69;5045943;28;20197;-60
2021/07/28 07:38:04;;;;;;;1999.90;999.90;;;;;;;29.64;51.11;95975.81;5046159;28;20201;-59
2021/07/28 07:40:33;;;;;;;1999.90;999.90;;;;;;;29.44;51.87;95974.97;5046286;27;20201;-59
2021/07/28 07:43:00;;;;;;;1999.90;999.90;;;;;;;29.37;51.04;95965.09;5045762;28;20686;-60
2021/07/28 07:45:27;;;;;;;1999.90;999.90;;;;;;;29.28;53.11;95966.72;5045810;28;20281;-60
2021/07/28 07:47:54;;;;;;;1999.90;999.90;;;;;;;29.17;53.62;95963.41;5061673;28;20200;-60
2021/07/28 07:50:21;;;;;;;1999.90;999.90;;;;;;;29.46;53.16;95967.25;5043567;28;21006;-60
2021/07/28 07:52:48;;;;;;;1999.90;999.90;;;;;;;29.65;52.55;95965.84;5042353;28;20205;-60
2021/07/28 07:55:15;;;;;;;1999.90;999.90;;;;;;;29.84;51.11;95970.53;5045918;28;20201;-60
2021/07/28 07:57:44;;;;;;;1999.90;999.90;;;;;;;29.93;52.84;95965.47;5045723;28;20705;-60
2021/07/28 08:00:12;;;;;;;1999.90;999.90;;;;;;;29.77;53.38;95962.63;5046000;28;20265;-60
2021/07/28 08:02:39;;;;;;;1999.90;999.90;;;;;;;30.28;52.28;95961.44;5045673;28;20211;-61
2021/07/28 08:05:07;;;;;;;1999.90;999.90;;;;;;;30.41;50.90;95959.66;5045530;28;20207;-60
2021/07/28 08:07:34;;;;;;;1999.90;999.90;;;;;;;30.26;51.89;95953.03;5045831;28;20208;-60
2021/07/28 08:10:02;;;;;;;1999.90;999.90;;;;;;;30.36;51.13;95954.78;5045650;28;20213;-60
2021/07/28 08:12:29;;;;;;;1999.90;999.90;;;;;;;30.79;51.74;95947.47;5045687;28;20208;-62
2021/07/28 08:14:57;;;;;;;1999.90;999.90;;;;;;;31.09;46.60;95943.81;5045726;28;20193;-61
2021/07/28 08:17:24;;;;;;;1999.90;999.90;;;;;;;30.71;50.61;95946.09;5045445;28;20208;-61
2021/07/28 08:19:51;;;;;;;1999.90;999.90;;;;;;;31.02;48.75;95949.34;5048843;28;20263;-61
2021/07/28 08:22:19;;;;;;;1999.90;999.90;;;;;;;31.23;48.30;95950.09;5048861;28;20237;-61
2021/07/28 08:24:46;;;;;;;1999.90;999.90;;;;;;;31.36;47.96;95943.66;5049082;28;20705;-61
2021/07/28 08:27:13;;;;;;;1999.90;999.90;;;;;;;31.59;46.00;95942.75;5048848;28;20712;-61
2021/07/28 08:29:40;;;;;;;1999.90;999.90;;;;;;;31.81;44.19;95943.78;5049268;28;20205;-61
2021/07/28 08:32:09;;;;;;;1999.90;999.90;;;;;;;31.80;46.14;95946.91;5049161;28;20204;-61
2021/07/28 08:34:36;;;;;;;1999.90;999.90;;;;;;;31.97;43.98;95937.66;5049026;28;20201;-61
2021/07/28 08:37:03;;;;;;;1999.90;999.90;;;;;;;31.96;42.92;95939.59;5049360;28;20692;-61
2021/07/28 08:39:30;;;;;;;1999.90;999.90;;;;;;;32.04;42.75;95942.84;5048739;28;20197;-61
2021/07/28 08:42:04;;;;;;;1999.90;999.90;;;;;;;32.07;43.29;95939.34;5048624;28;20326;-61
2021/07/28 08:44:34;;;;;;;1999.90;999.90;;;;;;;32.16;47.41;95933.38;5048662;28;20677;-61
2021/07/28 08:47:01;;;;;;;1999.90;999.90;;;;;;;32.30;44.33;95933.75;5048669;28;20235;-61
2021/07/28 08:49:30;;;;;;;1999.90;999.90;;;;;;;32.40;42.14;95930.03;5048541;28;20201;-60
2021/07/28 08:51:57;;;;;;;1999.90;999.90;;;;;;;32.33;42.60;95937.56;5048832;28;20205;-61
2021/07/28 08:54:24;;;;;;;1999.90;999.90;;;;;;;32.51;38.97;95934.38;5048502;28;20205;-61
2021/07/28 08:56:54;;;;;;;1999.90;999.90;;;;;;;32.44;38.92;95935.31;5048747;28;20225;-61
2021/07/28 08:59:25;;;;;;;1999.90;999.90;;;;;;;32.56;40.28;95933.88;5048714;28;20363;-60
2021/07/28 09:01:53;;;;;;;1999.90;999.90;;;;;;;32.76;40.48;95929.88;5048474;28;20197;-60
2021/07/28 09:04:20;;;;;;;1999.90;999.90;;;;;;;32.52;39.91;95925.13;5048382;28;20193;-60
2021/07/28 09:06:49;;;;;;;1999.90;999.90;;;;;;;32.54;39.91;95928.16;5048275;28;20240;-60
2021/07/28 09:09:16;;;;;;;1999.90;999.90;;;;;;;32.87;43.29;95919.56;5048218;28;20608;-60
2021/07/28 09:11:57;;;;;;;1999.90;999.90;;;;;;;33.10;41.56;95921.19;5048263;28;20201;-61
2021/07/28 09:14:28;;;;;;;1999.90;999.90;;;;;;;33.30;40.92;95924.47;5047970;27;20200;-60
2021/07/28 09:17:12;;;;;;;1999.90;999.90;;;;;;;32.78;41.70;95922.09;5048028;28;20181;-61
2021/07/28 09:19:41;;;;;;;1999.90;999.90;;;;;;;32.64;42.57;95909.03;5048082;28;20272;-60
2021/07/28 09:22:11;;;;;;;1999.90;999.90;;;;;;;32.79;43.27;95909.41;5047868;27;20320;-60
2021/07/28 09:24:40;;;;;;;1999.90;999.90;;;;;;;33.10;43.24;95905.03;5048237;28;20201;-60
2021/07/28 09:27:08;;;;;;;1999.90;999.90;;;;;;;33.10;40.68;95904.28;5047790;28;20278;-60
2021/07/28 09:29:39;;;;;;;1999.90;999.90;;;;;;;32.91;40.91;95903.28;5046847;27;20197;-60
2021/07/28 09:32:12;;;;;;;1999.90;999.90;;;;;;;32.82;40.17;95897.78;5048306;28;20185;-59
2021/07/28 09:34:39;;;;;;;1999.90;999.90;;;;;;;32.99;40.92;95899.19;5047796;28;20189;-60
2021/07/28 09:37:10;;;;;;;1999.90;999.90;;;;;;;33.10;40.52;95888.13;5047905;28;20205;-60
2021/07/28 09:39:40;;;;;;;1999.90;999.90;;;;;;;33.06;35.61;95887.47;5048130;28;20190;-60
2021/07/28 09:42:12;;;;;;;1999.90;999.90;;;;;;;33.09;38.21;95890.06;5049584;28;20202;-61
2021/07/28 09:44:40;;;;;;;1999.90;999.90;;;;;;;33.44;37.84;95890.19;5067653;27;20197;-61
2021/07/28 09:47:10;;;;;;;1999.90;999.90;;;;;;;33.73;38.79;95885.44;5067650;27;20258;-60
2021/07/28 09:49:37;;;;;;;1999.90;999.90;;;;;;;33.96;40.19;95887.75;5067617;28;20211;-60
2021/07/28 09:52:21;;;;;;;1999.90;999.90;;;;;;;34.20;38.15;95884.69;5067865;27;20204;-60
2021/07/28 09:54:51;;;;;;;1999.90;999.90;;;;;;;33.98;38.09;95882.66;5067710;27;20196;-61
2021/07/28 09:57:23;;;;;;;1999.90;999.90;;;;;;;33.93;40.61;95877.06;5067556;27;20206;-60
2021/07/28 09:59:53;;;;;;;1999.90;999.90;;;;;;;34.02;39.69;95875.22;5067876;28;20618;-60
2021/07/28 10:02:23;;;;;;;1999.90;999.90;;;;;;;34.23;40.87;95873.00;5067438;28;20674;-60
2021/07/28 10:04:52;;;;;;;1999.90;999.90;;;;;;;34.23;41.84;95873.00;5067982;27;20195;-61
2021/07/28 10:07:20;;;;;;;1999.90;999.90;;;;;;;34.01;40.01;95872.97;5067547;28;20228;-61
2021/07/28 10:10:00;;;;;;;1999.90;999.90;;;;;;;34.00;40.31;95869.50;5067337;27;20559;-61
2021/07/28 10:12:28;;;;;;;1999.90;999.90;;;;;;;34.26;39.30;95866.75;5051744;27;20219;-61
2021/07/28 10:14:56;;;;;;;1999.90;999.90;;;;;;;34.52;39.10;95873.53;5047498;28;20289;-61
2021/07/28 10:17:24;;;;;;;1999.90;999.90;;;;;;;34.30;39.07;95865.44;5047431;28;20194;-61
2021/07/28 10:19:51;;;;;;;1999.90;999.90;;;;;;;34.44;38.77;95864.16;5047414;28;20197;-61
2021/07/28 10:22:20;;;;;;;1999.90;999.90;;;;;;;34.72;38.77;95863.16;5046922;28;20228;-60
2021/07/28 10:24:48;;;;;;;1999.90;999.90;;;;;;;34.78;36.45;95855.25;5047343;28;20235;-62
2021/07/28 10:27:17;;;;;;;1999.90;999.90;;;;;;;34.88;37.02;95857.53;5047050;28;20221;-62
2021/07/28 10:29:45;;;;;;;1999.90;999.90;;;;;;;35.03;39.27;95848.91;5047181;28;20208;-61
2021/07/28 10:32:30;;;;;;;1999.90;999.90;;;;;;;34.98;38.80;95848.28;5047252;28;20614;-61
2021/07/28 10:35:25;;;;;;;1999.90;999.90;;;;;;;34.88;40.63;95851.38;5046952;28;20284;-61
2021/07/28 10:37:53;;;;;;;1999.90;999.90;;;;;;;34.82;39.78;95840.41;5047299;28;20189;-61
2021/07/28 10:40:34;;;;;;;1999.90;999.90;;;;;;;35.12;36.67;95843.56;5047102;28;20200;-61
2021/07/28 10:43:06;;;;;;;1999.90;999.90;;;;;;;35.17;34.79;95840.28;5047164;28;20205;-62
2021/07/28 10:45:55;;;;;;;1999.90;999.90;;;;;;;35.39;35.02;95836.28;5046784;27;20197;-61
2021/07/28 10:48:58;;;;;;;1999.90;999.90;;;;;;;35.57;35.62;95840.25;5046646;28;20236;-61
2021/07/28 10:51:58;;;;;;;1999.90;999.90;;;;;;;35.53;34.99;95837.66;5046923;28;20250;-62
2021/07/28 10:55:02;;;;;;;1999.90;999.90;;;;;;;35.72;34.53;95828.41;4965634;28;20188;-62
2021/07/28 10:58:06;;;;;;;1999.90;999.90;;;;;;;36.05;32.71;95830.53;4965575;28;20213;-61
2021/07/28 11:00:58;;;;;;;1999.90;999.90;;;;;;;36.18;34.02;95831.16;4965515;28;20199;-61
2021/07/28 11:03:38;;;;;;;1999.90;999.90;;;;;;;35.89;33.44;95826.16;4965471;28;20224;-61